Terminal Aerodrome Forecast
Issued by NWS

Home | Current Version | Previous Version | Text Only | Print | Product List | Glossary On
Versions: 1 2 3 4 5 6 7 8 9 10 11 12 13 14 15 16 17 18 19 20 21 22 23 24 25 26 27 28 29 30 31 32
000
FTUS45 KGJT 241720
TAFMTJ
TAF
KMTJ 241720Z 2418/2518 22016G21KT P6SM FEW120 BKN180
     FM242200 23019G27KT P6SM SCT110 SCT250
     FM250200 20019KT P6SM SCT250
     FM250500 17015KT P6SM SCT250
     FM251000 15009KT P6SM FEW250
     FM251700 23009KT P6SM FEW250=

USA.gov is the U.S. government's official web portal to all federal, state and local government web resources and services.